• Join FlightAware (Why Join?)
  • Login
  • US Flag 
06:23AM EDT


 

Airport Tracker/Info


-or-


 

Live Flight TrackerFlight Track Log ✈ SWA902 ✈ 28-Apr-2013 ✈ KMCO - KSTL

Flight Track Log - Related Links

Times and Time Zones

All times are in EDT time to prevent confusion due to time zone crossing. See the SWA902 flight status page for this flight to view local times or setup timezone preferences in your user account.

Time Position Orientation Groundspeed Altitude Reporting Facility
EDT Latitude Longitude Course Direction KTS MPH feet Rate Location/Type
05:14PM 28.4167 -81.3000 210° Southwest 167 192 500  Level Orlando TRACON
05:15PM 28.3667 -81.3333 210° Southwest 226 260 2,400 2,520 Climbing Orlando TRACON
05:16PM 28.3333 -81.3667 221° Southwest 220 253 5,400 2,700 Climbing Orlando TRACON
05:17PM 28.3333 -81.4667 270° West 287 330 7,900 1,200 Climbing Orlando TRACON
05:18PM 28.3333 -81.5500 270° West 299 344 8,000 1,380 Climbing Orlando TRACON
05:20PM 28.3244 -81.7583 267° West 303 349 12,600 2,520 Climbing Jacksonville Center
05:21PM 28.3192 -81.8858 267° West 347 399 16,400 3,240 Climbing Jacksonville Center
05:22PM 28.3139 -82.0061 267° West 372 428 19,100 2,700 Climbing Jacksonville Center
05:23PM 28.3106 -82.1286 268° West 384 442 21,800 2,460 Climbing Jacksonville Center
05:24PM 28.3425 -82.2464 287° West 391 450 24,100 1,980 Climbing Jacksonville Center
05:25PM 28.4428 -82.3119 330° Northwest 374 430 25,800 1,620 Climbing Jacksonville Center
05:26PM 28.5517 -82.3797 331° Northwest 407 468 27,400 1,680 Climbing Jacksonville Center
05:27PM 28.6625 -82.4525 330° Northwest 436 502 29,200 1,800 Climbing Jacksonville Center
05:28PM 28.7733 -82.5208 332° Northwest 446 513 31,000 1,800 Climbing Jacksonville Center
05:29PM 28.8822 -82.5914 330° Northwest 451 519 32,900 1,680 Climbing Jacksonville Center
05:30PM 28.9928 -82.6622 331° Northwest 451 519 34,400 1,560 Climbing Jacksonville Center
05:31PM 29.0994 -82.7308 331° Northwest 451 519 36,100 1,500 Climbing Jacksonville Center
05:32PM 29.2058 -82.7975 331° Northwest 441 507 37,500 900 Climbing Jacksonville Center
05:33PM 29.3103 -82.8664 330° Northwest 441 507 38,000 240 Climbing Jacksonville Center
05:34PM 29.4167 -82.9331 331° Northwest 436 502 38,000  Level Jacksonville Center
05:35PM 29.5275 -83.0072 330° Northwest 442 509 38,000  Level Jacksonville Center
05:36PM 29.6297 -83.0764 330° Northwest 437 503 38,000  Level Jacksonville Center
05:37PM 29.7256 -83.1628 322° Northwest 437 503 38,000  Level Jacksonville Center
05:38PM 29.8172 -83.2444 322° Northwest 427 491 38,000  Level Jacksonville Center
05:39PM 29.9006 -83.3239 320° Northwest 427 491 38,000  Level Jacksonville Center
05:40PM 29.9942 -83.4058 323° Northwest 427 491 38,000  Level Jacksonville Center
05:41PM 30.0856 -83.4881 322° Northwest 427 491 38,000  Level Jacksonville Center
05:42PM 30.1750 -83.5678 322° Northwest 422 486 38,000  Level Jacksonville Center
05:43PM 30.2664 -83.6503 322° Northwest 416 479 38,000  Level Jacksonville Center
05:44PM 30.3578 -83.7328 322° Northwest 416 479 38,000  Level Jacksonville Center
05:45PM 30.4447 -83.8131 321° Northwest 416 479 38,000  Level Jacksonville Center
05:46PM 30.5319 -83.8933 322° Northwest 411 473 38,000  Level Jacksonville Center
05:47PM 30.6169 -83.9764 320° Northwest 404 465 38,000  Level Jacksonville Center
05:48PM 30.7039 -84.0522 323° Northwest 399 459 38,000  Level Jacksonville Center
05:49PM 30.7928 -84.1356 321° Northwest 399 459 38,000  Level Jacksonville Center
05:50PM 30.8817 -84.2192 321° Northwest 399 459 38,000  Level Jacksonville Center
05:51PM 30.9728 -84.3028 322° Northwest 405 466 38,000  Level Jacksonville Center
05:52PM 31.0617 -84.3864 321° Northwest 405 466 38,000  Level Jacksonville Center
05:53PM 31.1483 -84.4656 322° Northwest 405 466 38,000  Level Jacksonville Center
05:54PM 31.2369 -84.5497 321° Northwest 405 466 38,000  Level Jacksonville Center
05:56PM 31.4400 -84.7375 322° Northwest 392 451 38,000  Level Atlanta Center
05:57PM 31.5314 -84.8233 321° Northwest 397 457 38,000  Level Atlanta Center
05:58PM 31.6164 -84.9044 321° Northwest 397 457 38,000  Level Atlanta Center
05:59PM 31.7053 -84.9908 320° Northwest 402 463 38,000  Level Atlanta Center
06:00PM 31.8008 -85.0775 322° Northwest 413 475 38,000  Level Atlanta Center
06:01PM 31.8958 -85.1689 321° Northwest 413 475 38,000  Level Atlanta Center
06:02PM 31.9847 -85.2533 321° Northwest 413 475 38,000  Level Atlanta Center
06:03PM 32.0758 -85.3381 322° Northwest 413 475 38,000  Level Atlanta Center
06:04PM 32.1647 -85.4228 321° Northwest 413 475 38,000  Level Atlanta Center
06:05PM 32.2556 -85.5100 321° Northwest 418 481 38,000  Level Atlanta Center
06:06PM 32.3483 -85.5975 321° Northwest 418 481 38,000  Level Atlanta Center
06:07PM 32.4411 -85.6853 321° Northwest 418 481 38,000  Level Atlanta Center
06:08PM 32.5317 -85.7733 321° Northwest 423 487 38,000  Level Atlanta Center
06:09PM 32.6203 -85.8589 321° Northwest 423 487 38,000  Level Atlanta Center
06:10PM 32.7128 -85.9497 320° Northwest 429 494 38,000  Level Atlanta Center
06:11PM 32.8033 -86.0381 321° Northwest 429 494 38,000  Level Atlanta Center
06:12PM 32.8936 -86.1242 321° Northwest 429 494 38,000  Level Atlanta Center
06:13PM 32.9758 -86.2081 319° Northwest 429 494 38,000  Level Atlanta Center
06:14PM 33.0661 -86.2969 320° Northwest 429 494 38,000  Level Atlanta Center
06:15PM 33.1542 -86.3836 321° Northwest 423 487 38,000  Level Atlanta Center
06:16PM 33.2422 -86.4703 321° Northwest 423 487 38,000  Level Atlanta Center
06:17PM 33.3383 -86.5700 319° Northwest 423 487 38,000  Level Atlanta Center
06:18PM 33.4283 -86.6572 321° Northwest 423 487 38,000  Level Atlanta Center
06:19PM 33.5183 -86.7472 320° Northwest 418 481 38,000  Level Atlanta Center
06:20PM 33.6081 -86.8372 320° Northwest 424 488 38,000  Level Atlanta Center
06:21PM 33.7042 -86.9253 323° Northwest 424 488 38,000  Level Atlanta Center
06:23PM 33.8808 -87.0669 326° Northwest 434 499 38,000  Level Memphis Center
06:24PM 33.9914 -87.1531 327° Northwest 440 506 38,000  Level Memphis Center
06:25PM 34.0894 -87.2322 326° Northwest 434 499 38,000  Level Memphis Center
06:26PM 34.1958 -87.3136 328° Northwest 429 494 38,000  Level Memphis Center
06:27PM 34.2958 -87.3931 327° Northwest 429 494 38,000  Level Memphis Center
06:28PM 34.3936 -87.4728 326° Northwest 429 494 38,000  Level Memphis Center
06:29PM 34.4956 -87.5525 327° Northwest 434 499 38,000  Level Memphis Center
06:30PM 34.5933 -87.6297 327° Northwest 429 494 38,000  Level Memphis Center
06:31PM 34.6933 -87.7100 327° Northwest 429 494 38,000  Level Memphis Center
06:32PM 34.7825 -87.7831 326° Northwest 429 494 38,000  Level Memphis Center
06:33PM 34.8842 -87.8661 326° Northwest 435 501 38,000  Level Memphis Center
06:34PM 34.9839 -87.9467 327° Northwest 440 506 38,000  Level Memphis Center
06:35PM 35.0856 -88.0300 326° Northwest 435 501 38,000  Level Memphis Center
06:36PM 35.1853 -88.1136 326° Northwest 430 495 38,000  Level Memphis Center
06:37PM 35.2867 -88.1975 326° Northwest 436 502 38,000  Level Memphis Center
06:38PM 35.3842 -88.2814 325° Northwest 436 502 38,000  Level Memphis Center
06:39PM 35.4919 -88.3656 328° Northwest 420 483 38,000  Level Memphis Center
06:40PM 35.5892 -88.4500 325° Northwest 420 483 38,000  Level Memphis Center
06:41PM 35.6883 -88.5269 328° Northwest 420 483 38,000  Level Memphis Center
06:42PM 35.7856 -88.6067 326° Northwest 425 489 38,000  Level Memphis Center
06:43PM 35.8803 -88.6867 326° Northwest 425 489 38,000  Level Memphis Center
06:44PM 35.9775 -88.7692 326° Northwest 425 489 38,000  Level Memphis Center
06:45PM 36.0744 -88.8522 325° Northwest 425 489 38,000  Level Memphis Center
06:46PM 36.1711 -88.9325 326° Northwest 425 489 38,000 -240 Level Memphis Center
06:47PM 36.2700 -89.0158 326° Northwest 430 495 37,600 -720 Descending Memphis Center
06:48PM 36.3792 -89.0811 334° Northwest 430 495 36,600 -960 Descending Memphis Center
06:49PM 36.4925 -89.1439 336° Northwest 435 501 35,700 -900 Descending Memphis Center
06:50PM 36.6056 -89.2119 334° Northwest 441 507 34,800 -960 Descending Memphis Center
06:51PM 36.7189 -89.2800 334° Northwest 441 507 33,800 -960 Descending Memphis Center
06:52PM 36.8256 -89.3433 335° Northwest 441 507 32,900 -960 Descending Memphis Center
06:53PM 36.9344 -89.4069 335° Northwest 441 507 31,900 -1,740 Descending Memphis Center
06:56PM 37.1861 -89.5483 336° Northwest 423 487 26,800 -1,680 Descending Kansas City Center
06:57PM 37.2847 -89.6061 335° Northwest 407 468 26,000 -960 Descending Kansas City Center
06:58PM 37.4028 -89.6683 337° Northwest 392 451 24,900 -1,020 Descending Kansas City Center
06:59PM 37.4994 -89.7203 337° Northwest 384 442 23,900 -1,020 Descending Kansas City Center
07:00PM 37.5903 -89.7717 336° Northwest 375 432 22,900 -1,080 Descending Kansas City Center
07:01PM 37.6836 -89.8239 336° Northwest 370 426 21,700 -1,560 Descending Kansas City Center
07:02PM 37.7714 -89.8725 336° Northwest 357 411 19,700 -2,100 Descending Kansas City Center
07:03PM 37.8739 -89.9275 337° Northwest 343 395 17,400 -2,100 Descending Kansas City Center
07:04PM 37.9594 -89.9719 338° Northwest 334 384 15,400 -1,980 Descending Kansas City Center
07:05PM 38.0469 -90.0219 336° Northwest 322 371 13,400 -1,860 Descending Kansas City Center
07:06PM 38.1272 -90.0664 336° Northwest 315 362 11,600 -1,500 Descending Kansas City Center
07:07PM 38.2167 -90.0783 354° North 298 343 10,300 -1,020 Descending Kansas City Center
07:08PM 38.2900 -90.0836 357° North 267 307 9,500 -720 Descending Kansas City Center
07:09PM 38.3597 -90.0761 North 234 269 8,900 -840 Descending Kansas City Center
07:10PM 38.4136 -90.0717 North 224 258 7,800 -1,080 Descending Kansas City Center
07:11PM 38.4753 -90.0781 355° North 223 257 6,700 -1,020 Descending Kansas City Center
07:12PM 38.5386 -90.0900 352° North 217 250 5,700 -1,020 Descending Kansas City Center
07:13PM 38.5894 -90.1044 347° North 203 234 4,600 -1,080 Descending Kansas City Center
07:14PM 38.6367 -90.1406 329° Northwest 199 229 3,500 -780 Descending Kansas City Center
07:15PM 38.6703 -90.2008 306° West 183 211 3,100 -660 Descending Kansas City Center
07:16PM 38.6967 -90.2547 302° West 180 207 2,200 -840 Descending Kansas City Center
07:17PM 38.7189 -90.3008 302° West 168 193 1,400 -780 Descending Kansas City Center
07:18PM 38.7392 -90.3414 303° West 150 173 600 -780 Descending Kansas City Center